createdAt,value
2022-08-16T00:01:41.144Z,11.75
2022-08-16T00:04:12.430Z,8.52
2022-08-16T00:06:40.329Z,8.82
2022-08-16T00:09:10.761Z,6.68
2022-08-16T00:11:39.347Z,8.05
2022-08-16T00:14:11.696Z,7.13
2022-08-16T00:17:01.026Z,11.55
2022-08-16T00:19:41.188Z,12.15
2022-08-16T00:22:13.694Z,9.85
2022-08-16T00:24:46.975Z,9.07
2022-08-16T00:27:15.131Z,11.15
2022-08-16T00:29:42.951Z,11.60
2022-08-16T00:32:17.808Z,9.43
2022-08-16T00:34:53.295Z,10.13
2022-08-16T00:37:25.067Z,13.30
2022-08-16T00:40:34.530Z,7.35
2022-08-16T00:43:02.528Z,11.77
2022-08-16T00:45:38.652Z,6.80
2022-08-16T00:48:31.168Z,10.90
2022-08-16T00:51:00.957Z,6.93
2022-08-16T00:53:30.779Z,7.35
2022-08-16T00:56:05.500Z,7.93
2022-08-16T00:58:35.442Z,8.10
2022-08-16T01:01:08.210Z,8.05
2022-08-16T01:03:41.643Z,11.93
2022-08-16T01:06:40.125Z,8.65
2022-08-16T01:09:01.611Z,8.38
2022-08-16T01:11:32.473Z,9.55
2022-08-16T01:14:30.045Z,7.88
2022-08-16T01:16:59.895Z,8.83
2022-08-16T01:19:40.897Z,10.77
2022-08-16T01:22:47.391Z,7.07
2022-08-16T01:25:10.372Z,8.65
2022-08-16T01:30:19.422Z,9.55
2022-08-16T01:33:01.580Z,13.82
2022-08-16T01:35:57.258Z,9.00
2022-08-16T01:41:26.036Z,10.38
2022-08-16T01:44:00.752Z,6.75
2022-08-16T01:46:40.130Z,10.85
2022-08-16T01:49:13.247Z,8.07
2022-08-16T01:51:44.095Z,12.80
2022-08-16T01:54:13.372Z,14.95
2022-08-16T01:56:43.138Z,13.75
2022-08-16T01:59:15.874Z,10.38
2022-08-16T02:01:52.522Z,12.98
2022-08-16T02:04:49.149Z,11.52
2022-08-16T02:07:13.100Z,12.55
2022-08-16T02:09:41.517Z,10.98
2022-08-16T02:12:49.769Z,14.15
2022-08-16T02:14:57.604Z,11.80
2022-08-16T02:17:28.419Z,13.02
2022-08-16T02:19:58.520Z,13.75
2022-08-16T02:22:34.888Z,15.55
2022-08-16T02:25:11.634Z,14.02
2022-08-16T02:27:44.673Z,16.73
2022-08-16T02:30:36.923Z,14.02
2022-08-16T02:33:10.520Z,13.13
2022-08-16T02:35:49.687Z,12.02
2022-08-16T02:38:22.866Z,12.23
2022-08-16T02:40:51.571Z,15.68
2022-08-16T02:43:26.941Z,12.10
2022-08-16T02:45:58.835Z,11.90
2022-08-16T02:48:30.635Z,12.80
2022-08-16T02:51:06.476Z,18.30
2022-08-16T02:53:49.108Z,13.40
2022-08-16T02:56:19.131Z,19.05
2022-08-16T02:58:49.506Z,12.00
2022-08-16T03:01:24.735Z,12.85
2022-08-16T03:04:39.639Z,18.27
2022-08-16T03:06:56.446Z,14.85
2022-08-16T03:09:28.714Z,15.55
2022-08-16T03:11:57.481Z,19.45
2022-08-16T03:14:25.366Z,24.27
2022-08-16T03:17:00.213Z,21.05
2022-08-16T03:19:47.037Z,20.40
2022-08-16T03:22:28.368Z,23.92
2022-08-16T03:24:58.843Z,24.20
2022-08-16T03:27:31.009Z,22.42
2022-08-16T03:30:16.169Z,24.38
2022-08-16T03:32:51.232Z,22.27
2022-08-16T03:35:22.936Z,28.55
2022-08-16T03:38:02.805Z,21.92
2022-08-16T03:40:34.434Z,24.90
2022-08-16T03:43:19.918Z,29.05
2022-08-16T03:45:52.734Z,23.60
2022-08-16T03:48:36.576Z,19.30
2022-08-16T03:51:09.712Z,21.90
2022-08-16T03:53:40.719Z,17.80
2022-08-16T03:56:19.501Z,21.13
2022-08-16T03:58:50.900Z,18.30
2022-08-16T04:01:19.996Z,27.25
2022-08-16T04:03:47.369Z,24.92
2022-08-16T04:06:17.841Z,29.42
2022-08-16T04:08:45.557Z,24.65
2022-08-16T04:11:16.415Z,22.45
2022-08-16T04:14:00.680Z,18.85
2022-08-16T04:16:33.677Z,20.80
2022-08-16T04:19:04.375Z,19.52
2022-08-16T04:21:34.672Z,19.35
2022-08-16T04:24:03.289Z,21.98
2022-08-16T04:26:32.192Z,29.13
2022-08-16T04:29:17.132Z,28.20
2022-08-16T04:31:56.576Z,24.65
2022-08-16T04:34:30.861Z,23.55
2022-08-16T04:37:01.557Z,21.98
2022-08-16T04:39:36.708Z,23.63
2022-08-16T04:42:17.729Z,20.88
2022-08-16T04:44:54.169Z,18.35
2022-08-16T04:47:31.445Z,24.35
2022-08-16T04:50:06.829Z,30.73
2022-08-16T04:52:36.076Z,22.13
2022-08-16T04:55:11.720Z,18.00
2022-08-16T04:57:41.394Z,24.17
2022-08-16T05:00:32.492Z,22.80
2022-08-16T05:03:08.269Z,18.10
2022-08-16T05:05:45.108Z,21.88
2022-08-16T05:08:28.118Z,23.38
2022-08-16T05:11:05.223Z,25.95
2022-08-16T05:13:40.768Z,21.58
2022-08-16T05:18:51.608Z,25.33
2022-08-16T05:21:21.359Z,23.75
2022-08-16T05:23:55.538Z,23.70
2022-08-16T05:26:30.160Z,22.92
2022-08-16T05:28:59.044Z,21.38
2022-08-16T05:31:29.872Z,21.65
2022-08-16T05:34:00.346Z,23.20
2022-08-16T05:36:33.821Z,24.52
2022-08-16T05:39:05.547Z,26.52
2022-08-16T05:41:33.215Z,17.75
2022-08-16T05:44:23.051Z,19.23
2022-08-16T05:47:00.017Z,21.60
2022-08-16T05:49:39.879Z,25.38
2022-08-16T05:52:10.714Z,24.55
2022-08-16T05:54:47.288Z,20.40
2022-08-16T05:57:17.694Z,27.75
2022-08-16T05:59:50.543Z,20.80
2022-08-16T06:02:30.728Z,30.15
2022-08-16T06:05:02.031Z,23.38
2022-08-16T06:07:29.723Z,25.13
2022-08-16T06:10:00.312Z,26.27
2022-08-16T06:12:29.676Z,23.90
2022-08-16T06:15:04.172Z,22.27
2022-08-16T06:17:43.036Z,28.30
2022-08-16T06:20:24.051Z,25.55
2022-08-16T06:22:59.046Z,27.00
2022-08-16T06:25:36.336Z,25.88
2022-08-16T06:28:16.964Z,20.95
2022-08-16T06:30:59.189Z,23.88
2022-08-16T06:33:29.458Z,25.58
2022-08-16T06:36:09.956Z,27.70
2022-08-16T06:38:39.067Z,25.15
2022-08-16T06:41:27.533Z,20.63
2022-08-16T06:43:57.517Z,26.05
2022-08-16T06:46:35.083Z,22.35
2022-08-16T06:49:06.960Z,24.83
2022-08-16T06:51:46.705Z,26.25
2022-08-16T06:54:16.823Z,22.30
2022-08-16T06:56:44.531Z,19.52
2022-08-16T06:59:13.264Z,24.88
2022-08-16T07:01:45.086Z,21.48
2022-08-16T07:04:32.506Z,23.88
2022-08-16T07:07:09.546Z,25.98
2022-08-16T07:09:37.697Z,22.73
2022-08-16T07:12:05.799Z,19.80
2022-08-16T07:14:36.204Z,20.83
2022-08-16T07:17:08.367Z,20.88
2022-08-16T07:20:29.514Z,21.65
2022-08-16T07:22:52.385Z,24.25
2022-08-16T07:25:16.781Z,20.70
2022-08-16T07:27:44.494Z,20.42
2022-08-16T07:30:45.465Z,18.10
2022-08-16T07:33:07.064Z,25.40
2022-08-16T07:35:34.695Z,23.05
2022-08-16T07:38:04.546Z,20.27
2022-08-16T07:40:59.780Z,19.15
2022-08-16T07:43:23.046Z,17.30
2022-08-16T07:45:53.173Z,18.83
2022-08-16T07:48:21.689Z,25.20
2022-08-16T07:50:57.103Z,24.15
2022-08-16T07:53:32.009Z,15.70
2022-08-16T07:56:00.794Z,28.17
2022-08-16T07:58:34.122Z,18.20
2022-08-16T08:01:10.911Z,14.07
2022-08-16T08:03:48.280Z,19.42
2022-08-16T08:06:25.007Z,13.02
2022-08-16T08:08:57.475Z,17.45
2022-08-16T08:11:28.570Z,19.08
2022-08-16T08:14:03.202Z,19.83
2022-08-16T08:16:32.683Z,19.77
2022-08-16T08:19:02.860Z,21.83
2022-08-16T08:21:58.524Z,19.52
2022-08-16T08:24:22.705Z,23.77
2022-08-16T08:27:02.418Z,13.98
2022-08-16T08:29:37.807Z,17.65
2022-08-16T08:32:57.426Z,17.80
2022-08-16T08:35:00.469Z,14.15
2022-08-16T08:37:54.143Z,16.98
2022-08-16T08:40:24.190Z,23.70
2022-08-16T08:42:57.996Z,17.63
2022-08-16T08:48:33.064Z,17.08
2022-08-16T08:51:09.000Z,26.05
2022-08-16T08:53:37.866Z,28.00
2022-08-16T08:56:23.464Z,18.60
2022-08-16T08:58:59.070Z,19.25
2022-08-16T09:01:36.907Z,13.77
2022-08-16T09:04:14.599Z,12.75
2022-08-16T09:06:45.563Z,14.90
2022-08-16T09:09:17.178Z,14.27
2022-08-16T09:11:52.400Z,14.65
2022-08-16T09:14:32.968Z,19.17
2022-08-16T09:17:03.314Z,15.75
2022-08-16T09:19:34.630Z,13.07
2022-08-16T09:22:02.272Z,17.75
2022-08-16T09:24:46.648Z,15.77
2022-08-16T09:27:18.055Z,16.45
2022-08-16T09:29:46.713Z,17.77
2022-08-16T09:32:28.628Z,27.42
2022-08-16T09:34:59.001Z,16.17
2022-08-16T09:37:29.629Z,20.30
2022-08-16T09:39:59.706Z,22.80
2022-08-16T09:42:30.967Z,21.38
2022-08-16T09:45:18.752Z,28.45
2022-08-16T09:47:56.652Z,23.35
2022-08-16T09:50:33.196Z,20.40
2022-08-16T09:53:15.456Z,22.67
2022-08-16T09:55:49.512Z,24.08
2022-08-16T09:58:40.811Z,26.85
2022-08-16T10:01:08.435Z,19.63
2022-08-16T10:03:37.263Z,20.73
2022-08-16T10:06:26.237Z,24.17
2022-08-16T10:09:08.399Z,22.58
2022-08-16T10:12:11.035Z,23.35
2022-08-16T10:14:40.769Z,23.50
2022-08-16T10:17:14.654Z,28.02
2022-08-16T10:19:43.340Z,24.80
2022-08-16T10:22:12.682Z,24.17
2022-08-16T10:24:59.333Z,26.23
2022-08-16T10:27:30.040Z,22.13
2022-08-16T10:30:25.859Z,23.15
2022-08-16T10:32:57.308Z,25.80
2022-08-16T10:35:32.952Z,29.77
2022-08-16T10:38:01.767Z,29.75
2022-08-16T10:40:34.508Z,30.65
2022-08-16T10:43:01.960Z,24.83
2022-08-16T10:45:36.964Z,41.03
2022-08-16T10:48:27.813Z,22.70
2022-08-16T10:50:58.914Z,25.73
2022-08-16T10:53:32.736Z,29.00
2022-08-16T10:56:44.247Z,24.00
2022-08-16T10:59:32.348Z,27.05
2022-08-16T11:02:21.845Z,24.27
2022-08-16T11:13:20.803Z,20.52
2022-08-16T11:15:55.714Z,22.17
2022-08-16T11:18:48.996Z,21.42
2022-08-16T11:21:29.453Z,21.83
2022-08-16T11:23:59.097Z,21.10
2022-08-16T11:26:28.758Z,25.73
2022-08-16T11:29:14.043Z,22.90
2022-08-16T11:31:45.823Z,19.38
2022-08-16T11:34:21.276Z,22.20
2022-08-16T11:36:53.884Z,28.27
2022-08-16T11:39:31.883Z,34.25
2022-08-16T11:42:03.062Z,35.88
2022-08-16T11:44:52.586Z,34.72
2022-08-16T11:47:20.969Z,30.93
2022-08-16T11:49:48.566Z,41.47
2022-08-16T11:52:18.036Z,31.80
2022-08-16T11:54:53.958Z,42.78
2022-08-16T11:57:24.614Z,29.07
2022-08-16T11:59:54.903Z,19.88
2022-08-16T12:02:32.310Z,26.08
2022-08-16T12:05:00.908Z,21.95
2022-08-16T12:07:29.372Z,24.60
2022-08-16T12:10:04.547Z,18.80
2022-08-16T12:12:32.752Z,23.70
2022-08-16T12:15:01.941Z,21.50
2022-08-16T12:17:32.333Z,18.45
2022-08-16T12:20:02.132Z,16.35
2022-08-16T12:22:36.535Z,13.80
2022-08-16T12:25:09.020Z,13.77
2022-08-16T12:27:39.264Z,18.02
2022-08-16T12:30:09.108Z,13.35
2022-08-16T12:32:53.024Z,14.25
2022-08-16T12:35:24.692Z,9.35
2022-08-16T12:37:56.620Z,13.98
2022-08-16T12:40:30.310Z,8.65
2022-08-16T12:43:00.879Z,8.35
2022-08-16T12:45:34.534Z,11.95
2022-08-16T12:48:33.820Z,10.05
2022-08-16T12:51:13.666Z,12.40
2022-08-16T12:53:51.817Z,11.32
2022-08-16T12:56:21.582Z,9.73
2022-08-16T12:58:55.900Z,10.57
2022-08-16T13:01:27.107Z,6.50
2022-08-16T13:04:12.180Z,9.10
2022-08-16T13:06:44.969Z,8.27
2022-08-16T13:09:37.884Z,8.40
2022-08-16T13:14:50.089Z,11.75
2022-08-16T13:17:26.320Z,12.77
2022-08-16T13:20:11.430Z,13.15
2022-08-16T13:22:50.147Z,11.10
2022-08-16T13:25:24.063Z,14.95
2022-08-16T13:28:02.495Z,8.15
2022-08-16T13:30:41.860Z,12.27
2022-08-16T13:33:15.793Z,9.27
2022-08-16T13:35:56.556Z,10.37
2022-08-16T13:38:27.492Z,10.57
2022-08-16T13:40:58.786Z,8.40
2022-08-16T13:43:29.133Z,12.90
2022-08-16T13:46:02.835Z,14.43
2022-08-16T13:48:37.132Z,11.48
2022-08-16T13:51:15.868Z,15.27
2022-08-16T13:53:54.791Z,13.00
2022-08-16T13:56:39.553Z,15.50
2022-08-16T13:59:19.972Z,14.85
2022-08-16T14:01:55.272Z,11.55
2022-08-16T14:04:27.102Z,13.80
2022-08-16T14:06:57.477Z,10.27
2022-08-16T14:09:27.298Z,9.65
2022-08-16T14:11:58.084Z,6.93
2022-08-16T14:14:30.363Z,9.63
2022-08-16T14:17:02.320Z,6.10
2022-08-16T14:19:33.290Z,4.57
2022-08-16T14:22:14.554Z,5.45
2022-08-16T14:24:52.668Z,5.13
2022-08-16T14:27:23.031Z,5.72
2022-08-16T14:29:53.033Z,5.32
2022-08-16T14:32:33.314Z,9.80
2022-08-16T14:35:08.266Z,5.97
2022-08-16T14:37:38.072Z,5.15
2022-08-16T14:40:07.796Z,4.47
2022-08-16T14:42:36.710Z,7.35
2022-08-16T14:45:07.672Z,6.40
2022-08-16T14:47:39.289Z,7.22
2022-08-16T14:50:16.481Z,8.15
2022-08-16T14:52:56.362Z,10.20
2022-08-16T14:55:27.978Z,8.95
2022-08-16T14:57:55.819Z,8.25
2022-08-16T15:00:27.172Z,10.70
2022-08-16T15:03:05.723Z,6.97
2022-08-16T15:05:35.016Z,7.20
2022-08-16T15:08:03.234Z,7.85
2022-08-16T15:10:32.164Z,7.47
2022-08-16T15:13:01.404Z,7.32
2022-08-16T15:15:30.043Z,6.30
2022-08-16T15:17:57.809Z,6.85
2022-08-16T15:20:31.199Z,4.82
2022-08-16T15:23:01.789Z,8.20
2022-08-16T15:25:33.820Z,6.35
2022-08-16T15:28:04.759Z,7.93
2022-08-16T15:30:56.805Z,8.85
2022-08-16T15:33:27.407Z,9.55
2022-08-16T15:35:58.544Z,10.50
2022-08-16T15:38:58.190Z,10.65
2022-08-16T15:41:39.045Z,15.18
2022-08-16T15:44:42.698Z,10.07
2022-08-16T15:47:18.486Z,9.75
2022-08-16T15:49:56.019Z,9.82
2022-08-16T15:52:30.962Z,12.48
2022-08-16T15:55:12.754Z,10.13
2022-08-16T15:57:51.744Z,9.25
2022-08-16T16:00:23.002Z,8.48
2022-08-16T16:03:08.784Z,10.75
2022-08-16T16:05:39.547Z,9.10
2022-08-16T16:08:09.945Z,10.80
2022-08-16T16:10:40.679Z,11.43
2022-08-16T16:13:09.943Z,11.15
2022-08-16T16:15:41.182Z,9.30
2022-08-16T16:18:12.129Z,9.07
2022-08-16T16:20:49.860Z,12.95
2022-08-16T16:23:24.854Z,12.82
2022-08-16T16:25:56.607Z,9.43
2022-08-16T16:28:51.134Z,9.52
2022-08-16T16:31:21.934Z,10.82
2022-08-16T16:33:57.737Z,12.77
2022-08-16T16:36:28.740Z,15.27
2022-08-16T16:38:57.170Z,16.00
2022-08-16T16:41:27.950Z,9.18
2022-08-16T16:43:56.772Z,11.07
2022-08-16T16:46:42.396Z,9.15
2022-08-16T16:49:12.551Z,17.75
2022-08-16T16:51:44.502Z,11.48
2022-08-16T16:54:27.568Z,10.40
2022-08-16T16:56:58.469Z,11.40
2022-08-16T16:59:28.782Z,12.80
2022-08-16T17:02:38.280Z,10.27
2022-08-16T17:04:44.182Z,11.10
2022-08-16T17:07:12.166Z,14.82
2022-08-16T17:09:41.706Z,9.55
2022-08-16T17:12:14.598Z,9.75
2022-08-16T17:14:55.853Z,10.15
2022-08-16T17:17:24.187Z,13.70
2022-08-16T17:19:51.675Z,16.63
2022-08-16T17:22:21.132Z,8.52
2022-08-16T17:24:52.509Z,13.43
2022-08-16T17:27:33.429Z,21.33
2022-08-16T17:30:16.185Z,11.88
2022-08-16T17:32:55.624Z,14.38
2022-08-16T17:35:34.323Z,13.63
2022-08-16T17:38:06.131Z,13.35
2022-08-16T17:40:49.271Z,17.55
2022-08-16T17:43:37.644Z,21.60
2022-08-16T17:46:41.388Z,14.57
2022-08-16T17:49:00.931Z,16.73
2022-08-16T17:51:28.592Z,22.88
2022-08-16T17:53:56.693Z,19.45
2022-08-16T17:56:24.386Z,19.30
2022-08-16T17:58:52.713Z,19.55
2022-08-16T18:01:25.571Z,14.55
2022-08-16T18:04:08.028Z,19.08
2022-08-16T18:06:39.796Z,15.80
2022-08-16T18:09:08.372Z,17.88
2022-08-16T18:11:43.012Z,24.75
2022-08-16T18:16:41.334Z,20.48
2022-08-16T18:19:10.093Z,22.40
2022-08-16T18:21:57.023Z,21.00
2022-08-16T18:24:28.020Z,22.10
2022-08-16T18:26:55.734Z,20.83
2022-08-16T18:29:23.225Z,19.92
2022-08-16T18:31:51.400Z,21.88
2022-08-16T18:34:20.723Z,23.65
2022-08-16T18:36:48.550Z,21.63
2022-08-16T18:39:16.361Z,20.30
2022-08-16T18:41:47.247Z,21.95
2022-08-16T18:44:25.241Z,20.42
2022-08-16T18:46:55.778Z,18.83
2022-08-16T18:49:24.262Z,19.23
2022-08-16T18:51:57.303Z,20.20
2022-08-16T18:54:26.287Z,24.73
2022-08-16T18:56:57.553Z,21.80
2022-08-16T18:59:27.814Z,27.48
2022-08-16T19:02:00.253Z,20.92
2022-08-16T19:04:55.561Z,22.15
2022-08-16T19:07:30.894Z,23.50
2022-08-16T19:10:02.022Z,20.60
2022-08-16T19:12:37.909Z,21.63
2022-08-16T19:15:17.434Z,23.40
2022-08-16T19:17:46.008Z,24.55
2022-08-16T19:20:20.573Z,25.73
2022-08-16T19:23:05.813Z,20.25
2022-08-16T19:25:46.757Z,27.83
2022-08-16T19:28:51.474Z,26.02
2022-08-16T19:31:31.834Z,26.52
2022-08-16T19:34:00.678Z,27.92
2022-08-16T19:36:36.842Z,24.98
2022-08-16T19:39:11.192Z,30.30
2022-08-16T19:41:42.588Z,25.15
2022-08-16T19:44:10.274Z,29.17
2022-08-16T19:46:41.984Z,23.00
2022-08-16T19:49:09.415Z,30.05
2022-08-16T19:51:39.605Z,22.45
2022-08-16T19:54:07.129Z,24.20
2022-08-16T19:56:34.523Z,21.67
2022-08-16T19:59:21.166Z,28.45
2022-08-16T20:01:52.083Z,21.92
2022-08-16T20:04:22.045Z,21.88
2022-08-16T20:06:50.978Z,24.83
2022-08-16T20:09:21.625Z,22.73
2022-08-16T20:11:50.624Z,21.55
2022-08-16T20:14:22.663Z,23.08
2022-08-16T20:16:58.384Z,19.38
2022-08-16T20:19:27.983Z,20.75
2022-08-16T20:21:57.358Z,25.08
2022-08-16T20:24:35.712Z,18.10
2022-08-16T20:27:07.566Z,19.02
2022-08-16T20:29:37.461Z,20.30
2022-08-16T20:32:06.414Z,39.15
2022-08-16T20:34:34.265Z,24.08
2022-08-16T20:37:01.732Z,18.65
2022-08-16T20:39:29.223Z,26.25
2022-08-16T20:41:56.670Z,25.42
2022-08-16T20:44:25.231Z,22.38
2022-08-16T20:46:52.998Z,21.20
2022-08-16T20:49:20.368Z,19.45
2022-08-16T20:51:50.585Z,19.10
2022-08-16T20:54:18.595Z,22.75
2022-08-16T20:56:46.709Z,20.17
2022-08-16T20:59:14.098Z,23.55
2022-08-16T21:01:46.773Z,33.10
2022-08-16T21:04:19.657Z,33.08
2022-08-16T21:06:53.544Z,35.60
2022-08-16T21:09:30.080Z,35.05
2022-08-16T21:12:00.870Z,42.67
2022-08-16T21:14:29.770Z,47.15
2022-08-16T21:16:57.316Z,49.03
2022-08-16T21:19:25.646Z,60.15
2022-08-16T21:21:53.185Z,65.97
2022-08-16T21:24:21.406Z,68.80
2022-08-16T21:26:55.571Z,67.25
2022-08-16T21:29:28.459Z,70.97
2022-08-16T21:32:09.608Z,68.72
2022-08-16T21:34:37.135Z,75.13
2022-08-16T21:37:05.335Z,68.32
2022-08-16T21:39:32.934Z,62.72
2022-08-16T21:42:01.057Z,61.28
2022-08-16T21:44:32.533Z,68.50
2022-08-16T21:47:08.137Z,62.35
2022-08-16T21:49:36.949Z,59.03
2022-08-16T21:52:06.251Z,59.50
2022-08-16T21:54:35.882Z,50.53
2022-08-16T21:57:08.680Z,56.50
2022-08-16T21:59:38.486Z,47.65
2022-08-16T22:02:07.417Z,43.78
2022-08-16T22:04:37.652Z,43.28
2022-08-16T22:07:06.794Z,39.63
2022-08-16T22:09:34.676Z,45.38
2022-08-16T22:12:02.488Z,42.63
2022-08-16T22:14:33.010Z,45.75
2022-08-16T22:17:00.436Z,40.78
2022-08-16T22:19:28.017Z,38.72
2022-08-16T22:21:55.761Z,40.67
2022-08-16T22:24:23.122Z,38.33
2022-08-16T22:26:50.543Z,41.35
2022-08-16T22:29:18.034Z,43.08
2022-08-16T22:31:45.492Z,37.15
2022-08-16T22:34:13.705Z,39.75
2022-08-16T22:36:43.216Z,41.45
2022-08-16T22:39:14.436Z,41.95
2022-08-16T22:41:45.706Z,38.63
2022-08-16T22:44:14.184Z,43.03
2022-08-16T22:46:43.859Z,42.60
2022-08-16T22:49:13.040Z,42.63
2022-08-16T22:51:40.605Z,45.30
2022-08-16T22:54:44.007Z,51.00
2022-08-16T22:57:00.188Z,46.53
2022-08-16T22:59:29.676Z,45.55
2022-08-16T23:01:57.235Z,42.85
2022-08-16T23:04:26.430Z,48.40
2022-08-16T23:06:54.217Z,45.85
2022-08-16T23:09:22.043Z,46.28
2022-08-16T23:11:49.800Z,45.75
2022-08-16T23:14:17.711Z,43.70
2022-08-16T23:16:47.301Z,42.08
2022-08-16T23:19:16.003Z,41.83
2022-08-16T23:21:46.958Z,48.90
2022-08-16T23:24:19.502Z,46.50
2022-08-16T23:26:49.009Z,47.35
2022-08-16T23:29:24.750Z,44.65
2022-08-16T23:31:59.557Z,46.28
2022-08-16T23:34:28.387Z,53.65
2022-08-16T23:36:56.774Z,49.13
2022-08-16T23:39:24.418Z,47.97
2022-08-16T23:41:52.860Z,53.63
2022-08-16T23:44:55.451Z,47.63
2022-08-16T23:47:08.073Z,48.42
2022-08-16T23:49:58.303Z,52.10
2022-08-16T23:52:39.431Z,54.33
2022-08-16T23:55:11.209Z,48.00
2022-08-16T23:57:38.576Z,45.83
